Nearby METAR Reports

 

LIEA - Alghero, Italia
Updated: 04/08/2021 00:20
Clear
Clear
 Wind from NE
Wind: NE 13 km/h
Temperature: 22°C
Dew Point: 17°C
Humidity: 73%
Barometer: 1014 hPa
Summary: Clear
Visibility: greater than 10 km
2021/08/03 22:20 LIEA 032220Z 04007KT CAVOK 22/17 Q1014
LIEO - Olbia, Italia
Updated: 04/08/2021 00:20
Clear
Clear
 Wind from varies
Wind: varies 2 km/h
Temperature: 22°C
Dew Point: 18°C
Humidity: 78%
Barometer: 1015 hPa
Summary: Clear
Visibility: greater than 10 km
2021/08/03 22:20 LIEO 032220Z VRB01KT CAVOK 22/18 Q1015
 
LIEE - Cagliari, Italia
Updated: 04/08/2021 00:20
Clear
Clear
 Wind from varies
Wind: varies 2 km/h
Temperature: 25°C
Dew Point: 20°C
Humidity: 74%
Barometer: 1012 hPa
Summary: Clear
Visibility: greater than 10 km
2021/08/03 22:20 LIEE 032220Z VRB01KT CAVOK 25/20 Q1012